Terminal Aerodrome Forecast
Issued by NWS Twin Cities, MN

Home | Current Version | Previous Version | Text Only | Print | Product List | Glossary Off
Versions: 1 2 3 4 5 6 7 8 9 10 11 12 13 14 15 16 17 18 19 20 21 22 23 24 25

550
FTUS43 KMPX 221502 AAA
TAFMSP
TAF AMD
KMSP 221502Z 2215/2318 18007KT P6SM BKN250
     FM222000 18011KT P6SM BKN050 OVC100
     FM230400 17005KT P6SM SCT040 BKN100
     FM230800 25005KT P6SM SCT150
     FM231100 31006KT P6SM FEW250=

USA.gov is the U.S. government's official web portal to all federal, state and local government web resources and services.